Terminal Aerodrome Forecast
Issued by NWS Sterling, VA

Current Version | Previous Version | Graphics & Text | Print | Product List | Glossary On
Versions: 1 2 3 4 5 6 7 8 9 10 11 12 13 14 15 16 17 18 19 20 21 22 23 24 25 26 27
815
FTUS41 KLWX 301120
TAFDCA
TAF
KDCA 301120Z 3012/0112 06006KT P6SM OVC008
     FM301600 VRB03KT P6SM BKN015
     FM301700 09004KT P6SM BKN025
     FM302000 12005KT P6SM OVC040
     FM302200 12006KT P6SM OVC030
     FM010000 12007KT 5SM BR OVC020
     FM010300 13008KT 3SM RA BR OVC010=

USA.gov is the U.S. government's official web portal to all federal, state and local government web resources and services.